createdAt,value
2022-12-17T00:00:27.497Z,99.90
2022-12-17T00:03:16.148Z,99.90
2022-12-17T00:06:02.139Z,99.90
2022-12-17T00:08:47.420Z,99.90
2022-12-17T00:11:34.523Z,99.90
2022-12-17T00:14:20.393Z,99.90
2022-12-17T00:17:05.903Z,99.90
2022-12-17T00:19:51.717Z,99.90
2022-12-17T00:22:37.219Z,99.90
2022-12-17T00:25:23.583Z,99.90
2022-12-17T00:28:10.415Z,99.90
2022-12-17T00:30:55.793Z,99.90
2022-12-17T00:33:42.379Z,99.90
2022-12-17T00:36:27.966Z,99.90
2022-12-17T00:39:14.024Z,99.90
2022-12-17T00:41:59.202Z,99.90
2022-12-17T00:44:46.342Z,99.90
2022-12-17T00:47:31.848Z,99.90
2022-12-17T00:50:17.629Z,99.90
2022-12-17T00:53:02.940Z,99.90
2022-12-17T00:55:49.086Z,99.90
2022-12-17T00:58:34.588Z,99.90
2022-12-17T01:01:22.085Z,99.90
2022-12-17T01:04:07.720Z,99.90
2022-12-17T01:06:54.821Z,99.90
2022-12-17T01:09:42.274Z,99.90
2022-12-17T01:12:27.557Z,99.90
2022-12-17T01:15:13.340Z,99.90
2022-12-17T01:18:00.095Z,99.90
2022-12-17T01:20:45.881Z,99.90
2022-12-17T01:23:31.490Z,99.90
2022-12-17T01:26:17.478Z,99.90
2022-12-17T01:29:02.844Z,99.90
2022-12-17T01:31:48.493Z,99.90
2022-12-17T01:34:35.923Z,99.90
2022-12-17T01:37:21.734Z,99.90
2022-12-17T01:40:07.568Z,99.90
2022-12-17T01:42:57.754Z,99.90
2022-12-17T01:45:47.989Z,99.90
2022-12-17T01:48:36.507Z,99.90
2022-12-17T01:51:24.389Z,99.90
2022-12-17T01:54:12.469Z,99.90
2022-12-17T01:57:00.739Z,99.90
2022-12-17T02:00:02.039Z,99.90
2022-12-17T02:02:47.454Z,99.90
2022-12-17T02:05:53.600Z,99.90
2022-12-17T02:08:51.277Z,99.90
2022-12-17T02:11:48.635Z,99.90
2022-12-17T02:15:02.055Z,99.90
2022-12-17T02:17:52.176Z,99.90
2022-12-17T02:20:43.441Z,99.90
2022-12-17T02:23:39.368Z,99.90
2022-12-17T02:26:31.873Z,99.90
2022-12-17T02:29:32.581Z,99.90
2022-12-17T02:32:18.681Z,99.90
2022-12-17T02:35:06.125Z,99.90
2022-12-17T02:37:51.430Z,99.90
2022-12-17T02:40:38.592Z,99.90
2022-12-17T02:43:26.127Z,99.90
2022-12-17T02:46:13.204Z,99.90
2022-12-17T02:49:07.178Z,99.90
2022-12-17T02:51:52.924Z,99.90
2022-12-17T02:54:38.465Z,99.90
2022-12-17T02:57:24.132Z,99.90
2022-12-17T03:00:09.920Z,99.90
2022-12-17T03:02:56.907Z,99.90
2022-12-17T03:05:45.345Z,99.90
2022-12-17T03:08:32.351Z,99.90
2022-12-17T03:11:18.113Z,99.90
2022-12-17T03:14:03.842Z,99.90
2022-12-17T03:16:50.043Z,99.90
2022-12-17T03:19:37.038Z,99.90
2022-12-17T03:22:22.593Z,99.90
2022-12-17T03:25:08.097Z,99.90
2022-12-17T03:27:53.725Z,99.90
2022-12-17T03:30:42.129Z,99.90
2022-12-17T03:33:30.389Z,99.90
2022-12-17T03:36:18.265Z,99.90
2022-12-17T03:39:03.914Z,99.90
2022-12-17T03:41:49.404Z,99.90
2022-12-17T03:44:34.625Z,99.90
2022-12-17T03:47:20.423Z,99.90
2022-12-17T03:50:06.032Z,99.90
2022-12-17T03:52:52.973Z,99.90
2022-12-17T03:55:38.923Z,99.90
2022-12-17T03:58:24.392Z,99.90
2022-12-17T04:01:10.392Z,99.90
2022-12-17T04:03:56.095Z,99.90
2022-12-17T04:06:41.832Z,99.90
2022-12-17T04:09:28.995Z,99.90
2022-12-17T04:12:14.469Z,99.90
2022-12-17T04:15:00.160Z,99.90
2022-12-17T04:17:45.996Z,99.90
2022-12-17T04:20:31.232Z,99.90
2022-12-17T04:23:17.376Z,99.90
2022-12-17T04:26:04.294Z,99.90
2022-12-17T04:28:49.827Z,99.90
2022-12-17T04:31:37.273Z,99.90
2022-12-17T04:34:22.920Z,99.90
2022-12-17T04:37:08.556Z,99.90
2022-12-17T04:39:54.243Z,99.90
2022-12-17T04:42:41.165Z,99.90
2022-12-17T04:45:27.601Z,99.90
2022-12-17T04:48:19.953Z,99.90
2022-12-17T04:51:05.616Z,99.90
2022-12-17T04:53:51.769Z,99.90
2022-12-17T04:56:37.388Z,99.90
2022-12-17T04:59:24.785Z,99.90
2022-12-17T05:02:10.327Z,99.90
2022-12-17T05:04:56.368Z,99.90
2022-12-17T05:07:41.896Z,99.90
2022-12-17T05:10:27.865Z,99.90
2022-12-17T05:13:17.330Z,99.90
2022-12-17T05:16:04.837Z,99.90
2022-12-17T05:18:50.881Z,99.90
2022-12-17T05:21:36.455Z,99.90
2022-12-17T05:24:22.721Z,99.90
2022-12-17T05:27:08.212Z,99.90
2022-12-17T05:29:54.028Z,99.90
2022-12-17T05:32:41.068Z,99.90
2022-12-17T05:35:27.852Z,99.90
2022-12-17T05:38:13.571Z,99.90
2022-12-17T05:40:59.156Z,99.90
2022-12-17T05:43:44.539Z,99.90
2022-12-17T05:46:30.498Z,99.90
2022-12-17T05:49:17.745Z,99.90
2022-12-17T05:52:03.321Z,99.90
2022-12-17T05:54:48.612Z,99.90
2022-12-17T05:57:34.093Z,99.90
2022-12-17T06:00:19.895Z,99.90
2022-12-17T06:03:05.362Z,99.90
2022-12-17T06:05:51.939Z,99.90
2022-12-17T06:08:37.420Z,99.90
2022-12-17T06:11:23.525Z,99.90
2022-12-17T06:14:09.195Z,99.90
2022-12-17T06:16:55.632Z,99.90
2022-12-17T06:19:41.525Z,99.90
2022-12-17T06:22:28.198Z,99.90
2022-12-17T06:25:14.032Z,99.90
2022-12-17T06:28:13.700Z,99.90
2022-12-17T06:30:59.594Z,99.90
2022-12-17T06:33:45.280Z,99.90
2022-12-17T06:36:30.883Z,99.90
2022-12-17T06:39:18.273Z,99.90
2022-12-17T06:42:04.896Z,99.90
2022-12-17T06:44:50.845Z,99.90
2022-12-17T06:47:36.867Z,99.90
2022-12-17T06:50:23.821Z,99.90
2022-12-17T06:53:17.496Z,99.90
2022-12-17T06:56:04.809Z,97.20
2022-12-17T06:58:50.295Z,85.50
2022-12-17T07:01:36.506Z,78.60
2022-12-17T07:04:22.342Z,75.30
2022-12-17T07:07:08.216Z,55.30
2022-12-17T07:09:54.096Z,38.40
2022-12-17T07:12:41.301Z,31.90
2022-12-17T07:15:28.186Z,17.00
2022-12-17T07:18:15.352Z,13.80
2022-12-17T07:21:00.809Z,16.30
2022-12-17T07:23:46.256Z,17.40
2022-12-17T07:26:31.996Z,18.20
2022-12-17T07:29:19.138Z,20.00
2022-12-17T07:32:04.849Z,26.20
2022-12-17T07:34:50.159Z,36.20
2022-12-17T07:37:36.046Z,47.10
2022-12-17T07:40:22.329Z,55.40
2022-12-17T07:43:07.890Z,60.70
2022-12-17T07:45:54.767Z,62.00
2022-12-17T07:48:40.352Z,68.10
2022-12-17T07:51:26.593Z,76.90
2022-12-17T07:54:12.259Z,80.50
2022-12-17T07:56:58.127Z,81.60
2022-12-17T07:59:44.120Z,77.80
2022-12-17T08:02:31.382Z,75.10
2022-12-17T08:05:17.247Z,74.70
2022-12-17T08:08:16.446Z,79.60
2022-12-17T08:11:02.156Z,87.80
2022-12-17T08:13:47.842Z,92.30
2022-12-17T08:16:33.468Z,94.60
2022-12-17T08:19:20.157Z,95.60
2022-12-17T08:22:05.808Z,93.20
2022-12-17T08:24:51.094Z,92.20
2022-12-17T08:27:36.786Z,85.70
2022-12-17T08:30:23.669Z,81.10
2022-12-17T08:33:09.058Z,80.70
2022-12-17T08:35:56.361Z,80.70
2022-12-17T08:38:41.803Z,71.20
2022-12-17T08:41:27.655Z,58.60
2022-12-17T08:44:13.032Z,62.30
2022-12-17T08:46:58.681Z,72.30
2022-12-17T08:49:44.087Z,68.10
2022-12-17T08:52:31.235Z,54.60
2022-12-17T08:55:16.565Z,42.30
2022-12-17T08:58:11.280Z,48.50
2022-12-17T09:00:57.227Z,54.70
2022-12-17T09:03:43.307Z,49.70
2022-12-17T09:06:31.423Z,90.90
2022-12-17T09:09:20.258Z,69.20
2022-12-17T09:12:06.282Z,15.40
2022-12-17T09:14:52.037Z,15.00
2022-12-17T09:17:38.612Z,3.40
2022-12-17T09:20:29.220Z,1.00
2022-12-17T09:23:14.962Z,1.00
2022-12-17T09:26:02.237Z,1.00
2022-12-17T09:28:47.879Z,1.00
2022-12-17T09:31:37.220Z,1.00
2022-12-17T09:34:23.076Z,1.00
2022-12-17T09:37:08.771Z,1.00
2022-12-17T09:39:54.498Z,1.00
2022-12-17T09:42:54.445Z,1.00
2022-12-17T09:45:49.975Z,1.00
2022-12-17T09:48:42.857Z,1.00
2022-12-17T09:51:41.203Z,1.00
2022-12-17T09:54:37.043Z,1.00
2022-12-17T09:57:25.383Z,1.00
2022-12-17T10:00:12.504Z,1.00
2022-12-17T10:02:58.027Z,1.00
2022-12-17T10:05:48.749Z,1.00
2022-12-17T10:08:37.896Z,1.00
2022-12-17T10:11:37.700Z,1.00
2022-12-17T10:14:30.571Z,1.00
2022-12-17T10:17:17.647Z,1.00
2022-12-17T10:20:07.893Z,1.00
2022-12-17T10:23:01.566Z,1.00
2022-12-17T10:25:47.609Z,1.00
2022-12-17T10:28:35.251Z,1.00
2022-12-17T10:31:28.762Z,1.00
2022-12-17T10:34:16.394Z,1.00
2022-12-17T10:37:05.028Z,1.00
2022-12-17T10:39:51.200Z,1.00
2022-12-17T10:42:42.595Z,1.00
2022-12-17T10:45:43.021Z,1.00
2022-12-17T10:48:37.587Z,1.00
2022-12-17T10:51:35.749Z,1.00
2022-12-17T10:54:27.791Z,1.00
2022-12-17T10:57:18.694Z,1.00
2022-12-17T11:00:05.181Z,1.00
2022-12-17T11:02:51.549Z,1.00
2022-12-17T11:05:44.964Z,1.00
2022-12-17T11:08:35.198Z,1.00
2022-12-17T11:11:25.317Z,1.00
2022-12-17T11:14:11.650Z,1.00
2022-12-17T11:17:02.018Z,1.00
2022-12-17T11:19:55.176Z,1.00
2022-12-17T11:22:48.405Z,1.00
2022-12-17T11:25:57.391Z,1.00
2022-12-17T11:28:45.796Z,1.00
2022-12-17T11:31:49.341Z,1.00
2022-12-17T11:34:44.896Z,1.00
2022-12-17T11:37:36.750Z,1.00
2022-12-17T11:40:34.596Z,1.00
2022-12-17T11:43:31.168Z,1.00
2022-12-17T11:46:27.240Z,1.00
2022-12-17T11:49:21.316Z,1.00
2022-12-17T11:52:13.103Z,1.00
2022-12-17T11:55:06.950Z,1.00
2022-12-17T11:58:02.805Z,1.00
2022-12-17T12:00:55.434Z,1.00
2022-12-17T12:03:50.476Z,1.00
2022-12-17T12:06:42.553Z,1.00
2022-12-17T12:09:36.002Z,1.00
2022-12-17T12:12:29.473Z,1.00
2022-12-17T12:15:37.666Z,1.00
2022-12-17T12:18:28.847Z,1.00
2022-12-17T12:21:35.290Z,1.00
2022-12-17T12:24:36.488Z,1.00
2022-12-17T12:27:30.913Z,1.00
2022-12-17T12:30:27.565Z,1.00
2022-12-17T12:33:20.987Z,1.00
2022-12-17T12:36:10.609Z,1.00
2022-12-17T12:39:01.906Z,1.00
2022-12-17T12:41:57.395Z,1.00
2022-12-17T12:44:51.399Z,1.00
2022-12-17T12:47:42.364Z,1.00
2022-12-17T12:50:35.533Z,1.00
2022-12-17T12:53:23.122Z,1.00
2022-12-17T12:56:09.180Z,1.00
2022-12-17T12:58:54.808Z,1.00
2022-12-17T13:01:52.033Z,1.00
2022-12-17T13:04:51.558Z,1.00
2022-12-17T13:07:28.101Z,1.00
2022-12-17T13:09:58.324Z,1.00
2022-12-17T13:12:31.239Z,1.00
2022-12-17T13:15:18.199Z,1.00
2022-12-17T13:17:55.616Z,1.00
2022-12-17T13:20:27.600Z,1.00
2022-12-17T13:23:17.244Z,1.00
2022-12-17T13:25:45.764Z,1.00
2022-12-17T13:28:27.801Z,1.00
2022-12-17T13:31:02.130Z,1.00
2022-12-17T13:33:36.045Z,1.00
2022-12-17T13:36:13.937Z,1.00
2022-12-17T13:38:50.361Z,1.00
2022-12-17T13:41:20.585Z,1.00
2022-12-17T13:43:51.076Z,1.00
2022-12-17T13:46:21.006Z,1.00
2022-12-17T13:48:56.681Z,1.00
2022-12-17T13:51:24.958Z,1.00
2022-12-17T13:53:54.203Z,1.00
2022-12-17T13:56:28.434Z,1.00
2022-12-17T13:58:58.487Z,1.00
2022-12-17T14:01:27.015Z,1.00
2022-12-17T14:04:06.148Z,1.00
2022-12-17T14:06:37.586Z,1.00
2022-12-17T14:09:05.583Z,1.00
2022-12-17T14:11:56.305Z,1.00
2022-12-17T14:14:28.783Z,1.00
2022-12-17T14:16:56.507Z,1.00
2022-12-17T14:19:24.236Z,1.00
2022-12-17T14:21:51.953Z,1.00
2022-12-17T14:24:23.252Z,1.00
2022-12-17T14:26:53.953Z,1.00
2022-12-17T14:29:23.017Z,1.00
2022-12-17T14:31:55.293Z,1.00
2022-12-17T14:34:22.721Z,1.00
2022-12-17T14:36:56.433Z,1.00
2022-12-17T14:39:26.968Z,1.00
2022-12-17T14:42:16.722Z,1.00
2022-12-17T14:44:51.303Z,1.00
2022-12-17T14:47:21.820Z,1.00
2022-12-17T14:50:02.612Z,1.00
2022-12-17T14:52:49.159Z,1.00
2022-12-17T14:55:41.824Z,1.00
2022-12-17T14:58:17.715Z,1.00
2022-12-17T15:00:46.938Z,1.00
2022-12-17T15:03:20.347Z,1.00
2022-12-17T15:05:51.604Z,1.00
2022-12-17T15:08:19.334Z,1.00
2022-12-17T15:10:46.312Z,1.00
2022-12-17T15:13:15.031Z,1.00
2022-12-17T15:15:42.043Z,1.00
2022-12-17T15:18:12.362Z,1.00
2022-12-17T15:20:39.559Z,1.00
2022-12-17T15:23:09.791Z,1.00
2022-12-17T15:25:43.192Z,7.80
2022-12-17T15:28:14.672Z,17.20
2022-12-17T15:30:41.662Z,23.40
2022-12-17T15:33:10.180Z,29.70
2022-12-17T15:35:37.762Z,35.30
2022-12-17T15:38:05.149Z,42.50
2022-12-17T15:40:32.190Z,42.70
2022-12-17T15:43:11.458Z,45.70
2022-12-17T15:45:40.869Z,45.60
2022-12-17T15:48:08.058Z,45.40
2022-12-17T15:50:35.065Z,44.50
2022-12-17T15:53:02.605Z,44.70
2022-12-17T15:55:29.726Z,44.00
2022-12-17T15:57:57.314Z,43.70
2022-12-17T16:00:27.102Z,45.80
2022-12-17T16:02:56.100Z,44.20
2022-12-17T16:05:23.368Z,46.00
2022-12-17T16:07:51.593Z,46.50
2022-12-17T16:10:19.049Z,47.90
2022-12-17T16:12:46.584Z,52.10
2022-12-17T16:15:13.793Z,56.00
2022-12-17T16:17:41.201Z,64.20
2022-12-17T16:20:10.879Z,69.40
2022-12-17T16:22:38.168Z,74.70
2022-12-17T16:25:05.753Z,80.00
2022-12-17T16:27:33.172Z,86.80
2022-12-17T16:30:00.256Z,91.80
2022-12-17T16:32:31.503Z,92.90
2022-12-17T16:35:01.609Z,95.00
2022-12-17T16:37:30.401Z,98.00
2022-12-17T16:40:00.160Z,99.90
2022-12-17T16:42:28.159Z,99.90
2022-12-17T16:44:55.160Z,99.90
2022-12-17T16:47:22.421Z,99.90
2022-12-17T16:49:50.625Z,99.90
2022-12-17T16:52:18.174Z,98.30
2022-12-17T16:54:46.478Z,95.70
2022-12-17T16:57:13.388Z,92.20
2022-12-17T16:59:40.274Z,93.50
2022-12-17T17:02:13.233Z,89.10
2022-12-17T17:04:40.449Z,87.60
2022-12-17T17:07:08.044Z,89.70
2022-12-17T17:09:34.975Z,95.20
2022-12-17T17:12:03.741Z,97.30
2022-12-17T17:14:30.748Z,99.90
2022-12-17T17:16:57.996Z,99.90
2022-12-17T17:19:24.897Z,99.90
2022-12-17T17:21:54.419Z,99.90
2022-12-17T17:24:24.216Z,99.90
2022-12-17T17:26:52.046Z,99.90
2022-12-17T17:29:20.503Z,99.90
2022-12-17T17:34:34.707Z,99.90
2022-12-17T17:37:01.622Z,99.90
2022-12-17T17:39:31.780Z,99.90
2022-12-17T17:41:59.124Z,99.90
2022-12-17T17:44:27.485Z,99.90
2022-12-17T17:46:54.992Z,99.90
2022-12-17T17:49:22.280Z,99.90
2022-12-17T17:52:09.011Z,99.90
2022-12-17T17:54:36.471Z,99.90
2022-12-17T17:57:03.420Z,99.90
2022-12-17T17:59:34.032Z,99.90
2022-12-17T18:02:02.579Z,99.90
2022-12-17T18:04:30.787Z,99.90
2022-12-17T18:09:44.901Z,99.90
2022-12-17T18:12:30.801Z,99.90
2022-12-17T18:15:16.288Z,99.90
2022-12-17T18:17:45.085Z,99.90
2022-12-17T18:20:12.719Z,99.90
2022-12-17T18:22:40.261Z,99.90
2022-12-17T18:25:07.781Z,99.90
2022-12-17T18:27:34.755Z,99.90
2022-12-17T18:30:03.020Z,99.90
2022-12-17T18:32:30.325Z,99.90
2022-12-17T18:34:57.392Z,99.90
2022-12-17T18:37:24.606Z,99.90
2022-12-17T18:39:51.578Z,99.90
2022-12-17T18:42:37.451Z,99.90
2022-12-17T18:45:07.029Z,99.90
2022-12-17T18:47:34.270Z,99.90
2022-12-17T18:50:01.152Z,99.90
2022-12-17T18:52:28.537Z,99.90
2022-12-17T18:54:55.438Z,99.90
2022-12-17T18:57:22.670Z,99.90
2022-12-17T18:59:49.644Z,99.90
2022-12-17T19:02:18.078Z,99.90
2022-12-17T19:04:45.631Z,99.90
2022-12-17T19:07:12.559Z,99.90
2022-12-17T19:09:40.811Z,99.90
2022-12-17T19:12:09.660Z,99.90
2022-12-17T19:14:37.453Z,99.90
2022-12-17T19:17:05.964Z,99.90
2022-12-17T19:19:34.548Z,99.90
2022-12-17T19:22:02.444Z,99.90
2022-12-17T19:24:29.508Z,99.90
2022-12-17T19:26:56.698Z,99.90
2022-12-17T19:29:24.423Z,99.90
2022-12-17T19:31:51.614Z,99.90
2022-12-17T19:34:19.960Z,99.90
2022-12-17T19:36:48.592Z,99.90
2022-12-17T19:39:18.051Z,99.90
2022-12-17T19:41:45.288Z,99.90
2022-12-17T19:44:15.015Z,99.90
2022-12-17T19:46:43.180Z,99.90
2022-12-17T19:49:11.443Z,99.90
2022-12-17T19:51:40.402Z,99.90
2022-12-17T19:54:09.537Z,99.90
2022-12-17T19:56:36.948Z,99.90
2022-12-17T19:59:07.640Z,99.90
2022-12-17T20:01:36.730Z,99.90
2022-12-17T20:04:05.066Z,99.90
2022-12-17T20:06:35.020Z,99.90
2022-12-17T20:09:05.120Z,99.90
2022-12-17T20:11:34.088Z,99.90
2022-12-17T20:14:03.193Z,99.90
2022-12-17T20:16:32.135Z,99.90
2022-12-17T20:19:00.737Z,99.90
2022-12-17T20:21:28.053Z,99.90
2022-12-17T20:23:55.443Z,99.90
2022-12-17T20:26:24.822Z,99.90
2022-12-17T20:28:54.495Z,99.90
2022-12-17T20:31:21.555Z,99.90
2022-12-17T20:33:48.868Z,99.90
2022-12-17T20:36:18.464Z,99.90
2022-12-17T20:38:46.027Z,99.90
2022-12-17T20:41:14.996Z,99.90
2022-12-17T20:43:42.904Z,99.90
2022-12-17T20:46:12.086Z,99.90
2022-12-17T20:48:40.987Z,99.90
2022-12-17T20:51:08.966Z,99.90
2022-12-17T20:53:36.517Z,99.90
2022-12-17T20:56:06.042Z,99.90
2022-12-17T20:58:33.566Z,99.90
2022-12-17T21:01:05.849Z,99.90
2022-12-17T21:03:34.707Z,99.90
2022-12-17T21:06:07.102Z,99.90
2022-12-17T21:08:34.606Z,99.90
2022-12-17T21:11:02.267Z,99.90
2022-12-17T21:13:30.131Z,99.90
2022-12-17T21:15:57.688Z,99.90
2022-12-17T21:18:25.790Z,99.90
2022-12-17T21:20:59.325Z,99.90
2022-12-17T21:23:27.053Z,99.90
2022-12-17T21:26:02.034Z,99.90
2022-12-17T21:28:30.418Z,99.90
2022-12-17T21:30:57.879Z,99.90
2022-12-17T21:33:24.982Z,99.90
2022-12-17T21:36:00.327Z,97.60
2022-12-17T21:38:28.250Z,97.00
2022-12-17T21:40:55.624Z,97.50
2022-12-17T21:43:23.598Z,95.40
2022-12-17T21:45:57.084Z,89.10
2022-12-17T21:48:24.293Z,85.40
2022-12-17T21:50:51.316Z,82.00
2022-12-17T21:53:20.362Z,83.60
2022-12-17T21:55:48.093Z,80.70
2022-12-17T21:58:15.665Z,84.80
2022-12-17T22:00:43.278Z,86.50
2022-12-17T22:03:10.228Z,86.80
2022-12-17T22:05:37.981Z,88.40
2022-12-17T22:08:05.328Z,89.30
2022-12-17T22:10:47.845Z,89.40
2022-12-17T22:13:37.324Z,95.20
2022-12-17T22:16:06.464Z,97.10
2022-12-17T22:18:33.518Z,86.30
2022-12-17T22:21:02.223Z,80.10
2022-12-17T22:23:29.591Z,77.30
2022-12-17T22:25:58.515Z,78.40
2022-12-17T22:28:25.429Z,74.70
2022-12-17T22:31:11.079Z,70.10
2022-12-17T22:34:15.601Z,69.80
2022-12-17T22:37:43.974Z,76.20
2022-12-17T22:44:35.920Z,78.30
2022-12-17T22:44:46.298Z,77.40
2022-12-17T22:45:12.487Z,72.10
2022-12-17T22:47:40.129Z,76.10
2022-12-17T22:50:07.538Z,85.00
2022-12-17T22:52:35.203Z,75.00
2022-12-17T22:55:04.549Z,73.40
2022-12-17T22:57:36.135Z,74.80
2022-12-17T23:00:09.301Z,72.90
2022-12-17T23:02:37.026Z,75.60
2022-12-17T23:05:04.581Z,74.50
2022-12-17T23:07:32.132Z,74.50
2022-12-17T23:10:02.396Z,64.50
2022-12-17T23:12:48.457Z,67.90
2022-12-17T23:15:17.490Z,65.00
2022-12-17T23:17:44.718Z,62.80
2022-12-17T23:20:13.197Z,62.00
2022-12-17T23:22:40.290Z,62.10
2022-12-17T23:25:08.840Z,63.00
2022-12-17T23:27:35.981Z,63.40
2022-12-17T23:30:06.431Z,63.90
2022-12-17T23:32:36.145Z,58.50
2022-12-17T23:35:03.584Z,55.00
2022-12-17T23:37:33.895Z,48.90
2022-12-17T23:40:06.241Z,52.40
2022-12-17T23:42:33.270Z,52.00
2022-12-17T23:45:00.698Z,47.00
2022-12-17T23:47:27.606Z,46.70
2022-12-17T23:49:55.882Z,49.70
2022-12-17T23:52:22.739Z,42.70
2022-12-17T23:54:50.092Z,43.40
2022-12-17T23:57:19.722Z,46.50
2022-12-17T23:59:46.646Z,41.00
